sensor_id;sensor_type;location;lat;lon;timestamp;P1;durP1;ratioP1;P2;durP2;ratioP2
40815;SDS011;26535;48.788;9.214;2022-07-23T05:01:30;5.70;;;4.30;;
40815;SDS011;26535;48.788;9.214;2022-07-23T05:03:56;6.93;;;4.38;;
40815;SDS011;26535;48.788;9.214;2022-07-23T05:06:25;6.00;;;4.60;;
40815;SDS011;26535;48.788;9.214;2022-07-23T05:08:51;6.57;;;4.30;;
40815;SDS011;26535;48.788;9.214;2022-07-23T05:11:18;7.25;;;5.40;;
40815;SDS011;26535;48.788;9.214;2022-07-23T05:13:43;6.45;;;4.45;;
40815;SDS011;26535;48.788;9.214;2022-07-23T05:16:09;7.35;;;4.68;;
40815;SDS011;26535;48.788;9.214;2022-07-23T05:18:36;6.13;;;4.10;;
40815;SDS011;26535;48.788;9.214;2022-07-23T05:21:01;7.45;;;4.13;;
40815;SDS011;26535;48.788;9.214;2022-07-23T05:23:27;6.47;;;4.28;;
40815;SDS011;26535;48.788;9.214;2022-07-23T05:25:53;6.80;;;3.95;;
40815;SDS011;26535;48.788;9.214;2022-07-23T05:28:20;5.03;;;4.05;;
40815;SDS011;26535;48.788;9.214;2022-07-23T05:30:46;6.65;;;4.07;;
40815;SDS011;26535;48.788;9.214;2022-07-23T05:33:20;4.88;;;3.97;;
40815;SDS011;26535;48.788;9.214;2022-07-23T05:35:49;5.65;;;4.38;;
40815;SDS011;26535;48.788;9.214;2022-07-23T05:38:35;5.00;;;4.10;;
40815;SDS011;26535;48.788;9.214;2022-07-23T05:41:02;6.05;;;4.18;;
40815;SDS011;26535;48.788;9.214;2022-07-23T05:43:29;5.30;;;4.03;;
40815;SDS011;26535;48.788;9.214;2022-07-23T05:45:56;5.53;;;4.20;;
40815;SDS011;26535;48.788;9.214;2022-07-23T05:48:22;5.80;;;4.28;;
40815;SDS011;26535;48.788;9.214;2022-07-23T05:50:57;5.30;;;3.97;;
40815;SDS011;26535;48.788;9.214;2022-07-23T05:53:29;6.78;;;4.40;;
40815;SDS011;26535;48.788;9.214;2022-07-23T05:56:05;5.47;;;3.92;;
40815;SDS011;26535;48.788;9.214;2022-07-23T05:58:31;5.65;;;4.00;;
40815;SDS011;26535;48.788;9.214;2022-07-23T06:00:57;6.63;;;4.22;;
40815;SDS011;26535;48.788;9.214;2022-07-23T06:03:22;5.70;;;4.30;;
40815;SDS011;26535;48.788;9.214;2022-07-23T06:05:48;5.38;;;3.80;;
40815;SDS011;26535;48.788;9.214;2022-07-23T06:08:15;5.55;;;4.30;;
40815;SDS011;26535;48.788;9.214;2022-07-23T06:10:41;7.38;;;4.75;;
40815;SDS011;26535;48.788;9.214;2022-07-23T06:13:08;6.20;;;4.20;;
40815;SDS011;26535;48.788;9.214;2022-07-23T06:15:33;4.70;;;4.20;;
40815;SDS011;26535;48.788;9.214;2022-07-23T06:18:00;5.05;;;4.30;;
40815;SDS011;26535;48.788;9.214;2022-07-23T06:20:25;5.47;;;4.28;;
40815;SDS011;26535;48.788;9.214;2022-07-23T06:22:51;5.40;;;4.10;;
40815;SDS011;26535;48.788;9.214;2022-07-23T06:25:17;7.07;;;4.45;;
40815;SDS011;26535;48.788;9.214;2022-07-23T06:27:45;5.43;;;4.43;;
40815;SDS011;26535;48.788;9.214;2022-07-23T06:30:12;6.70;;;4.60;;
40815;SDS011;26535;48.788;9.214;2022-07-23T06:32:38;5.82;;;4.25;;
40815;SDS011;26535;48.788;9.214;2022-07-23T06:35:04;6.15;;;4.55;;
40815;SDS011;26535;48.788;9.214;2022-07-23T06:37:30;6.47;;;4.50;;
40815;SDS011;26535;48.788;9.214;2022-07-23T06:39:56;8.18;;;4.18;;
40815;SDS011;26535;48.788;9.214;2022-07-23T06:42:22;7.40;;;4.50;;
40815;SDS011;26535;48.788;9.214;2022-07-23T06:44:55;5.78;;;4.18;;
40815;SDS011;26535;48.788;9.214;2022-07-23T06:47:21;5.82;;;4.43;;
40815;SDS011;26535;48.788;9.214;2022-07-23T06:49:47;6.20;;;4.45;;
40815;SDS011;26535;48.788;9.214;2022-07-23T06:52:13;7.15;;;4.45;;
40815;SDS011;26535;48.788;9.214;2022-07-23T06:54:38;7.90;;;3.90;;
40815;SDS011;26535;48.788;9.214;2022-07-23T06:57:04;6.55;;;4.07;;
40815;SDS011;26535;48.788;9.214;2022-07-23T06:59:30;4.93;;;3.90;;
40815;SDS011;26535;48.788;9.214;2022-07-23T07:01:55;5.70;;;4.40;;
40815;SDS011;26535;48.788;9.214;2022-07-23T07:04:25;5.25;;;4.18;;
40815;SDS011;26535;48.788;9.214;2022-07-23T07:09:17;7.07;;;4.40;;
40815;SDS011;26535;48.788;9.214;2022-07-23T07:11:44;5.18;;;4.53;;
40815;SDS011;26535;48.788;9.214;2022-07-23T07:14:09;6.18;;;4.55;;
40815;SDS011;26535;48.788;9.214;2022-07-23T07:16:35;8.05;;;4.75;;
40815;SDS011;26535;48.788;9.214;2022-07-23T07:19:01;6.13;;;4.43;;
40815;SDS011;26535;48.788;9.214;2022-07-23T07:21:27;5.25;;;4.50;;
40815;SDS011;26535;48.788;9.214;2022-07-23T07:23:52;6.35;;;4.53;;
40815;SDS011;26535;48.788;9.214;2022-07-23T07:26:18;6.93;;;4.80;;
40815;SDS011;26535;48.788;9.214;2022-07-23T07:28:44;5.97;;;4.25;;
40815;SDS011;26535;48.788;9.214;2022-07-23T07:31:09;7.47;;;4.57;;
40815;SDS011;26535;48.788;9.214;2022-07-23T07:33:35;7.47;;;4.80;;
40815;SDS011;26535;48.788;9.214;2022-07-23T07:36:01;6.63;;;5.20;;
40815;SDS011;26535;48.788;9.214;2022-07-23T07:38:27;7.05;;;4.97;;
40815;SDS011;26535;48.788;9.214;2022-07-23T07:40:52;8.60;;;4.88;;
40815;SDS011;26535;48.788;9.214;2022-07-23T07:43:18;6.25;;;4.22;;
40815;SDS011;26535;48.788;9.214;2022-07-23T07:45:44;5.53;;;4.18;;
40815;SDS011;26535;48.788;9.214;2022-07-23T07:48:09;5.38;;;4.80;;
40815;SDS011;26535;48.788;9.214;2022-07-23T07:50:35;8.18;;;4.82;;
40815;SDS011;26535;48.788;9.214;2022-07-23T07:53:01;5.88;;;4.28;;
40815;SDS011;26535;48.788;9.214;2022-07-23T07:55:27;6.40;;;4.53;;
40815;SDS011;26535;48.788;9.214;2022-07-23T07:57:53;6.53;;;4.43;;
40815;SDS011;26535;48.788;9.214;2022-07-23T08:00:19;6.80;;;4.72;;
40815;SDS011;26535;48.788;9.214;2022-07-23T08:02:49;5.32;;;4.38;;
40815;SDS011;26535;48.788;9.214;2022-07-23T08:05:34;4.97;;;4.38;;
40815;SDS011;26535;48.788;9.214;2022-07-23T08:07:59;5.70;;;3.95;;
40815;SDS011;26535;48.788;9.214;2022-07-23T08:10:26;5.63;;;4.47;;
40815;SDS011;26535;48.788;9.214;2022-07-23T08:12:53;6.40;;;4.22;;
40815;SDS011;26535;48.788;9.214;2022-07-23T08:15:21;5.45;;;4.32;;
40815;SDS011;26535;48.788;9.214;2022-07-23T08:17:48;6.25;;;4.63;;
40815;SDS011;26535;48.788;9.214;2022-07-23T08:20:15;6.75;;;4.60;;
40815;SDS011;26535;48.788;9.214;2022-07-23T08:22:46;5.50;;;4.20;;
40815;SDS011;26535;48.788;9.214;2022-07-23T08:25:20;5.22;;;4.10;;
40815;SDS011;26535;48.788;9.214;2022-07-23T08:27:49;5.65;;;4.07;;
40815;SDS011;26535;48.788;9.214;2022-07-23T08:30:15;5.18;;;4.10;;
40815;SDS011;26535;48.788;9.214;2022-07-23T08:35:21;4.47;;;3.58;;
40815;SDS011;26535;48.788;9.214;2022-07-23T08:37:55;5.05;;;3.88;;
40815;SDS011;26535;48.788;9.214;2022-07-23T08:40:21;5.07;;;4.40;;
40815;SDS011;26535;48.788;9.214;2022-07-23T08:42:49;5.78;;;4.50;;
40815;SDS011;26535;48.788;9.214;2022-07-23T08:45:16;5.90;;;4.85;;
40815;SDS011;26535;48.788;9.214;2022-07-23T08:47:47;7.85;;;4.97;;
40815;SDS011;26535;48.788;9.214;2022-07-23T08:50:14;5.68;;;4.47;;
40815;SDS011;26535;48.788;9.214;2022-07-23T08:52:40;4.65;;;4.20;;
40815;SDS011;26535;48.788;9.214;2022-07-23T08:55:07;6.25;;;4.70;;
40815;SDS011;26535;48.788;9.214;2022-07-23T08:57:33;6.05;;;4.00;;
40815;SDS011;26535;48.788;9.214;2022-07-23T09:00:00;6.03;;;4.32;;
40815;SDS011;26535;48.788;9.214;2022-07-23T09:02:26;6.38;;;4.28;;
40815;SDS011;26535;48.788;9.214;2022-07-23T09:04:52;7.03;;;4.22;;
40815;SDS011;26535;48.788;9.214;2022-07-23T09:07:18;4.78;;;4.20;;
40815;SDS011;26535;48.788;9.214;2022-07-23T09:09:44;5.18;;;4.00;;
40815;SDS011;26535;48.788;9.214;2022-07-23T09:12:10;5.15;;;3.92;;
40815;SDS011;26535;48.788;9.214;2022-07-23T09:14:42;5.18;;;4.30;;
40815;SDS011;26535;48.788;9.214;2022-07-23T09:17:12;5.82;;;4.40;;
40815;SDS011;26535;48.788;9.214;2022-07-23T09:19:40;6.10;;;5.00;;
40815;SDS011;26535;48.788;9.214;2022-07-23T09:22:21;5.38;;;4.38;;
40815;SDS011;26535;48.788;9.214;2022-07-23T09:25:08;5.10;;;3.97;;
40815;SDS011;26535;48.788;9.214;2022-07-23T09:27:56;6.07;;;4.50;;
40815;SDS011;26535;48.788;9.214;2022-07-23T09:30:29;5.50;;;4.45;;
40815;SDS011;26535;48.788;9.214;2022-07-23T09:35:51;4.75;;;3.92;;
40815;SDS011;26535;48.788;9.214;2022-07-23T09:38:20;6.22;;;4.20;;
40815;SDS011;26535;48.788;9.214;2022-07-23T09:43:31;6.15;;;3.95;;
40815;SDS011;26535;48.788;9.214;2022-07-23T09:48:42;7.63;;;3.90;;
40815;SDS011;26535;48.788;9.214;2022-07-23T09:51:07;6.68;;;4.20;;
40815;SDS011;26535;48.788;9.214;2022-07-23T09:53:33;7.72;;;4.10;;
40815;SDS011;26535;48.788;9.214;2022-07-23T09:55:59;5.15;;;3.85;;
40815;SDS011;26535;48.788;9.214;2022-07-23T09:58:26;5.05;;;4.10;;
40815;SDS011;26535;48.788;9.214;2022-07-23T10:00:53;5.28;;;4.07;;
40815;SDS011;26535;48.788;9.214;2022-07-23T10:03:20;4.45;;;3.75;;
40815;SDS011;26535;48.788;9.214;2022-07-23T10:06:08;5.40;;;4.15;;
40815;SDS011;26535;48.788;9.214;2022-07-23T10:08:53;5.65;;;4.50;;
40815;SDS011;26535;48.788;9.214;2022-07-23T10:11:50;5.47;;;3.78;;
40815;SDS011;26535;48.788;9.214;2022-07-23T10:14:38;5.40;;;4.13;;
40815;SDS011;26535;48.788;9.214;2022-07-23T10:17:06;4.35;;;3.88;;
40815;SDS011;26535;48.788;9.214;2022-07-23T10:19:36;4.50;;;4.10;;
40815;SDS011;26535;48.788;9.214;2022-07-23T10:22:08;5.35;;;4.15;;
40815;SDS011;26535;48.788;9.214;2022-07-23T10:30:06;4.35;;;3.95;;
40815;SDS011;26535;48.788;9.214;2022-07-23T10:37:48;4.43;;;3.80;;
40815;SDS011;26535;48.788;9.214;2022-07-23T10:40:22;5.45;;;4.07;;
40815;SDS011;26535;48.788;9.214;2022-07-23T10:42:49;4.95;;;3.90;;
40815;SDS011;26535;48.788;9.214;2022-07-23T10:45:34;4.85;;;4.22;;
40815;SDS011;26535;48.788;9.214;2022-07-23T10:51:05;4.82;;;3.72;;
40815;SDS011;26535;48.788;9.214;2022-07-23T10:59:16;6.47;;;3.60;;
40815;SDS011;26535;48.788;9.214;2022-07-23T11:01:43;4.80;;;4.20;;
40815;SDS011;26535;48.788;9.214;2022-07-23T11:04:12;5.18;;;3.88;;
40815;SDS011;26535;48.788;9.214;2022-07-23T11:25:13;5.95;;;4.32;;
40815;SDS011;26535;48.788;9.214;2022-07-23T11:27:51;5.95;;;4.03;;
40815;SDS011;26535;48.788;9.214;2022-07-23T11:32:52;4.28;;;3.40;;
40815;SDS011;26535;48.788;9.214;2022-07-23T11:35:30;4.45;;;3.80;;
40815;SDS011;26535;48.788;9.214;2022-07-23T11:38:07;5.55;;;3.83;;
40815;SDS011;26535;48.788;9.214;2022-07-23T11:40:52;4.53;;;3.70;;
40815;SDS011;26535;48.788;9.214;2022-07-23T11:43:20;6.13;;;3.55;;
40815;SDS011;26535;48.788;9.214;2022-07-23T11:45:47;6.05;;;3.80;;
40815;SDS011;26535;48.788;9.214;2022-07-23T11:48:21;5.68;;;3.40;;
40815;SDS011;26535;48.788;9.214;2022-07-23T11:50:51;4.72;;;3.53;;
40815;SDS011;26535;48.788;9.214;2022-07-23T11:53:51;5.23;;;3.73;;
40815;SDS011;26535;48.788;9.214;2022-07-23T11:56:16;5.22;;;3.60;;
40815;SDS011;26535;48.788;9.214;2022-07-23T11:58:56;3.83;;;3.42;;
40815;SDS011;26535;48.788;9.214;2022-07-23T12:01:23;4.85;;;3.42;;
40815;SDS011;26535;48.788;9.214;2022-07-23T12:03:52;3.85;;;3.28;;
40815;SDS011;26535;48.788;9.214;2022-07-23T12:06:17;3.63;;;3.15;;
40815;SDS011;26535;48.788;9.214;2022-07-23T12:08:43;4.10;;;3.33;;
40815;SDS011;26535;48.788;9.214;2022-07-23T12:11:11;3.88;;;3.20;;
40815;SDS011;26535;48.788;9.214;2022-07-23T12:13:38;3.78;;;3.15;;
40815;SDS011;26535;48.788;9.214;2022-07-23T12:16:03;5.15;;;3.33;;
40815;SDS011;26535;48.788;9.214;2022-07-23T12:18:30;5.35;;;3.30;;
40815;SDS011;26535;48.788;9.214;2022-07-23T12:20:56;4.60;;;3.55;;
40815;SDS011;26535;48.788;9.214;2022-07-23T12:23:28;3.95;;;3.53;;
40815;SDS011;26535;48.788;9.214;2022-07-23T12:25:53;4.30;;;3.47;;
40815;SDS011;26535;48.788;9.214;2022-07-23T12:28:20;3.83;;;3.30;;
40815;SDS011;26535;48.788;9.214;2022-07-23T12:30:54;4.55;;;3.60;;
40815;SDS011;26535;48.788;9.214;2022-07-23T12:33:22;5.00;;;3.50;;
40815;SDS011;26535;48.788;9.214;2022-07-23T12:35:48;3.80;;;3.40;;
40815;SDS011;26535;48.788;9.214;2022-07-23T12:38:15;4.05;;;3.42;;
40815;SDS011;26535;48.788;9.214;2022-07-23T12:40:43;4.50;;;3.47;;
40815;SDS011;26535;48.788;9.214;2022-07-23T12:43:21;4.28;;;3.35;;
40815;SDS011;26535;48.788;9.214;2022-07-23T12:51:28;5.32;;;3.50;;
40815;SDS011;26535;48.788;9.214;2022-07-23T12:53:58;3.80;;;3.40;;
40815;SDS011;26535;48.788;9.214;2022-07-23T12:56:38;3.70;;;3.35;;
40815;SDS011;26535;48.788;9.214;2022-07-23T12:59:18;5.38;;;3.58;;
40815;SDS011;26535;48.788;9.214;2022-07-23T13:01:53;3.72;;;3.33;;
40815;SDS011;26535;48.788;9.214;2022-07-23T13:04:23;6.07;;;3.65;;
40815;SDS011;26535;48.788;9.214;2022-07-23T13:06:53;5.53;;;4.10;;
40815;SDS011;26535;48.788;9.214;2022-07-23T13:09:24;4.18;;;3.78;;
40815;SDS011;26535;48.788;9.214;2022-07-23T13:11:52;3.97;;;3.53;;
40815;SDS011;26535;48.788;9.214;2022-07-23T13:14:20;4.28;;;3.75;;
40815;SDS011;26535;48.788;9.214;2022-07-23T13:16:46;3.95;;;3.58;;
40815;SDS011;26535;48.788;9.214;2022-07-23T13:19:16;4.07;;;3.67;;
40815;SDS011;26535;48.788;9.214;2022-07-23T13:21:45;4.20;;;3.50;;
40815;SDS011;26535;48.788;9.214;2022-07-23T13:24:17;4.03;;;3.25;;
40815;SDS011;26535;48.788;9.214;2022-07-23T13:26:45;4.03;;;3.47;;
40815;SDS011;26535;48.788;9.214;2022-07-23T13:31:41;4.82;;;3.70;;
40815;SDS011;26535;48.788;9.214;2022-07-23T13:34:06;3.90;;;3.50;;
40815;SDS011;26535;48.788;9.214;2022-07-23T13:36:35;4.13;;;3.45;;
40815;SDS011;26535;48.788;9.214;2022-07-23T13:39:02;5.63;;;3.53;;
40815;SDS011;26535;48.788;9.214;2022-07-23T13:41:28;4.57;;;3.53;;
40815;SDS011;26535;48.788;9.214;2022-07-23T13:43:54;3.53;;;3.15;;
40815;SDS011;26535;48.788;9.214;2022-07-23T13:46:21;4.30;;;3.40;;
40815;SDS011;26535;48.788;9.214;2022-07-23T13:48:46;6.43;;;3.40;;
40815;SDS011;26535;48.788;9.214;2022-07-23T13:51:21;4.32;;;3.63;;
40815;SDS011;26535;48.788;9.214;2022-07-23T13:53:49;3.88;;;3.17;;
40815;SDS011;26535;48.788;9.214;2022-07-23T13:58:51;3.90;;;3.50;;
40815;SDS011;26535;48.788;9.214;2022-07-23T14:01:23;5.20;;;3.40;;
40815;SDS011;26535;48.788;9.214;2022-07-23T14:03:48;6.93;;;3.45;;
40815;SDS011;26535;48.788;9.214;2022-07-23T14:06:14;4.70;;;3.40;;
40815;SDS011;26535;48.788;9.214;2022-07-23T14:08:40;4.15;;;3.72;;
40815;SDS011;26535;48.788;9.214;2022-07-23T14:11:06;4.20;;;3.80;;
40815;SDS011;26535;48.788;9.214;2022-07-23T14:13:32;4.75;;;4.00;;
40815;SDS011;26535;48.788;9.214;2022-07-23T14:15:57;4.60;;;3.72;;
40815;SDS011;26535;48.788;9.214;2022-07-23T14:18:23;5.57;;;4.72;;
40815;SDS011;26535;48.788;9.214;2022-07-23T14:20:49;5.88;;;4.22;;
40815;SDS011;26535;48.788;9.214;2022-07-23T14:23:14;4.63;;;4.10;;
40815;SDS011;26535;48.788;9.214;2022-07-23T14:25:40;4.88;;;4.35;;
40815;SDS011;26535;48.788;9.214;2022-07-23T14:28:06;6.72;;;4.40;;
40815;SDS011;26535;48.788;9.214;2022-07-23T14:30:32;4.65;;;4.25;;
40815;SDS011;26535;48.788;9.214;2022-07-23T14:32:57;4.88;;;4.20;;
40815;SDS011;26535;48.788;9.214;2022-07-23T14:35:23;5.10;;;4.10;;
40815;SDS011;26535;48.788;9.214;2022-07-23T14:37:49;4.47;;;3.83;;
40815;SDS011;26535;48.788;9.214;2022-07-23T14:40:15;4.85;;;3.85;;
40815;SDS011;26535;48.788;9.214;2022-07-23T14:42:40;4.35;;;3.90;;
40815;SDS011;26535;48.788;9.214;2022-07-23T14:45:06;4.10;;;3.70;;
40815;SDS011;26535;48.788;9.214;2022-07-23T14:47:32;4.47;;;3.78;;
40815;SDS011;26535;48.788;9.214;2022-07-23T14:49:58;6.68;;;3.97;;
40815;SDS011;26535;48.788;9.214;2022-07-23T14:52:23;4.65;;;3.90;;
40815;SDS011;26535;48.788;9.214;2022-07-23T14:54:49;4.25;;;3.85;;
40815;SDS011;26535;48.788;9.214;2022-07-23T14:57:15;3.90;;;3.60;;
40815;SDS011;26535;48.788;9.214;2022-07-23T14:59:41;4.03;;;3.63;;
40815;SDS011;26535;48.788;9.214;2022-07-23T15:02:08;6.32;;;4.20;;
40815;SDS011;26535;48.788;9.214;2022-07-23T15:04:33;4.63;;;3.40;;
40815;SDS011;26535;48.788;9.214;2022-07-23T15:06:59;4.55;;;3.50;;
40815;SDS011;26535;48.788;9.214;2022-07-23T15:09:25;3.92;;;3.40;;
40815;SDS011;26535;48.788;9.214;2022-07-23T15:11:50;3.90;;;3.47;;
40815;SDS011;26535;48.788;9.214;2022-07-23T15:14:16;4.15;;;3.38;;
40815;SDS011;26535;48.788;9.214;2022-07-23T15:16:42;4.38;;;3.35;;
40815;SDS011;26535;48.788;9.214;2022-07-23T15:19:08;4.32;;;3.70;;
40815;SDS011;26535;48.788;9.214;2022-07-23T15:21:33;6.13;;;3.97;;
40815;SDS011;26535;48.788;9.214;2022-07-23T15:23:59;5.40;;;3.63;;
40815;SDS011;26535;48.788;9.214;2022-07-23T15:26:25;5.88;;;4.05;;
40815;SDS011;26535;48.788;9.214;2022-07-23T15:28:54;4.32;;;3.45;;
40815;SDS011;26535;48.788;9.214;2022-07-23T15:31:20;5.00;;;3.90;;
40815;SDS011;26535;48.788;9.214;2022-07-23T15:33:46;4.55;;;3.80;;
40815;SDS011;26535;48.788;9.214;2022-07-23T15:36:12;5.50;;;4.05;;
40815;SDS011;26535;48.788;9.214;2022-07-23T15:38:38;4.63;;;4.13;;
40815;SDS011;26535;48.788;9.214;2022-07-23T15:41:04;5.63;;;4.03;;
40815;SDS011;26535;48.788;9.214;2022-07-23T15:43:30;7.47;;;4.47;;
40815;SDS011;26535;48.788;9.214;2022-07-23T15:45:56;7.45;;;4.53;;
40815;SDS011;26535;48.788;9.214;2022-07-23T15:48:22;5.22;;;4.07;;
40815;SDS011;26535;48.788;9.214;2022-07-23T15:50:48;4.97;;;4.32;;
40815;SDS011;26535;48.788;9.214;2022-07-23T15:53:14;6.03;;;4.22;;
40815;SDS011;26535;48.788;9.214;2022-07-23T15:55:40;4.43;;;4.03;;
40815;SDS011;26535;48.788;9.214;2022-07-23T15:58:08;5.03;;;4.07;;
40815;SDS011;26535;48.788;9.214;2022-07-23T16:00:35;5.13;;;4.50;;
40815;SDS011;26535;48.788;9.214;2022-07-23T16:03:01;4.80;;;3.42;;
40815;SDS011;26535;48.788;9.214;2022-07-23T16:05:26;3.67;;;3.20;;
40815;SDS011;26535;48.788;9.214;2022-07-23T16:08:01;4.25;;;3.42;;
40815;SDS011;26535;48.788;9.214;2022-07-23T16:10:28;5.65;;;3.60;;
40815;SDS011;26535;48.788;9.214;2022-07-23T16:12:55;4.80;;;3.45;;
40815;SDS011;26535;48.788;9.214;2022-07-23T16:15:20;5.60;;;4.03;;
40815;SDS011;26535;48.788;9.214;2022-07-23T16:17:46;4.28;;;3.83;;
40815;SDS011;26535;48.788;9.214;2022-07-23T16:20:12;4.95;;;3.72;;
40815;SDS011;26535;48.788;9.214;2022-07-23T16:22:38;4.63;;;3.75;;
40815;SDS011;26535;48.788;9.214;2022-07-23T16:25:04;4.90;;;3.40;;
40815;SDS011;26535;48.788;9.214;2022-07-23T16:27:32;3.95;;;3.50;;
40815;SDS011;26535;48.788;9.214;2022-07-23T16:29:59;4.40;;;4.00;;
40815;SDS011;26535;48.788;9.214;2022-07-23T16:32:25;5.45;;;3.92;;
40815;SDS011;26535;48.788;9.214;2022-07-23T16:34:50;4.10;;;3.65;;
40815;SDS011;26535;48.788;9.214;2022-07-23T16:37:16;5.07;;;3.60;;
40815;SDS011;26535;48.788;9.214;2022-07-23T16:39:42;4.55;;;3.92;;
40815;SDS011;26535;48.788;9.214;2022-07-23T16:42:08;6.70;;;4.20;;
40815;SDS011;26535;48.788;9.214;2022-07-23T16:44:33;5.40;;;4.28;;
40815;SDS011;26535;48.788;9.214;2022-07-23T16:46:59;4.95;;;4.45;;
40815;SDS011;26535;48.788;9.214;2022-07-23T16:49:25;5.97;;;4.72;;
40815;SDS011;26535;48.788;9.214;2022-07-23T16:51:51;5.13;;;4.63;;
40815;SDS011;26535;48.788;9.214;2022-07-23T16:54:17;6.93;;;5.15;;
40815;SDS011;26535;48.788;9.214;2022-07-23T16:56:43;6.10;;;4.90;;
40815;SDS011;26535;48.788;9.214;2022-07-23T16:59:09;7.53;;;5.30;;
40815;SDS011;26535;48.788;9.214;2022-07-23T17:01:35;9.13;;;5.45;;
40815;SDS011;26535;48.788;9.214;2022-07-23T17:04:01;6.22;;;5.50;;
40815;SDS011;26535;48.788;9.214;2022-07-23T17:06:27;7.07;;;5.85;;
40815;SDS011;26535;48.788;9.214;2022-07-23T17:08:52;7.00;;;6.03;;
40815;SDS011;26535;48.788;9.214;2022-07-23T17:11:18;6.80;;;5.90;;
40815;SDS011;26535;48.788;9.214;2022-07-23T17:13:44;8.13;;;5.70;;
40815;SDS011;26535;48.788;9.214;2022-07-23T17:16:10;8.00;;;5.82;;
40815;SDS011;26535;48.788;9.214;2022-07-23T17:18:36;8.95;;;6.30;;
40815;SDS011;26535;48.788;9.214;2022-07-23T17:21:02;6.80;;;5.95;;
40815;SDS011;26535;48.788;9.214;2022-07-23T17:23:28;7.53;;;6.10;;
40815;SDS011;26535;48.788;9.214;2022-07-23T17:25:54;6.60;;;5.70;;
40815;SDS011;26535;48.788;9.214;2022-07-23T17:28:20;8.18;;;6.32;;
40815;SDS011;26535;48.788;9.214;2022-07-23T17:30:46;6.53;;;5.78;;
40815;SDS011;26535;48.788;9.214;2022-07-23T17:33:12;6.38;;;5.57;;
40815;SDS011;26535;48.788;9.214;2022-07-23T17:35:38;6.68;;;6.00;;
40815;SDS011;26535;48.788;9.214;2022-07-23T17:38:05;8.10;;;6.10;;
40815;SDS011;26535;48.788;9.214;2022-07-23T17:40:31;9.05;;;5.85;;
40815;SDS011;26535;48.788;9.214;2022-07-23T17:42:57;7.40;;;6.28;;
40815;SDS011;26535;48.788;9.214;2022-07-23T17:45:23;7.80;;;5.93;;
40815;SDS011;26535;48.788;9.214;2022-07-23T17:47:49;7.82;;;6.22;;
40815;SDS011;26535;48.788;9.214;2022-07-23T17:50:15;7.45;;;6.63;;
40815;SDS011;26535;48.788;9.214;2022-07-23T17:52:45;6.32;;;5.72;;
40815;SDS011;26535;48.788;9.214;2022-07-23T17:55:18;8.10;;;6.43;;
40815;SDS011;26535;48.788;9.214;2022-07-23T17:57:45;7.10;;;6.27;;
40815;SDS011;26535;48.788;9.214;2022-07-23T18:00:12;9.20;;;6.63;;
40815;SDS011;26535;48.788;9.214;2022-07-23T18:02:39;8.00;;;5.75;;
40815;SDS011;26535;48.788;9.214;2022-07-23T18:05:05;7.95;;;6.55;;
40815;SDS011;26535;48.788;9.214;2022-07-23T18:07:31;8.00;;;6.60;;
40815;SDS011;26535;48.788;9.214;2022-07-23T18:09:57;7.53;;;6.55;;
40815;SDS011;26535;48.788;9.214;2022-07-23T18:12:22;8.45;;;7.40;;
40815;SDS011;26535;48.788;9.214;2022-07-23T18:14:49;11.55;;;7.00;;
40815;SDS011;26535;48.788;9.214;2022-07-23T18:17:15;8.30;;;6.68;;
40815;SDS011;26535;48.788;9.214;2022-07-23T18:19:41;8.32;;;6.85;;
40815;SDS011;26535;48.788;9.214;2022-07-23T18:22:08;7.63;;;6.53;;
40815;SDS011;26535;48.788;9.214;2022-07-23T18:24:33;8.40;;;6.88;;
40815;SDS011;26535;48.788;9.214;2022-07-23T18:26:59;9.55;;;7.25;;
40815;SDS011;26535;48.788;9.214;2022-07-23T18:29:25;8.27;;;7.32;;
40815;SDS011;26535;48.788;9.214;2022-07-23T18:31:51;9.55;;;6.70;;
40815;SDS011;26535;48.788;9.214;2022-07-23T18:34:17;8.57;;;7.20;;
40815;SDS011;26535;48.788;9.214;2022-07-23T18:36:42;8.88;;;6.90;;
40815;SDS011;26535;48.788;9.214;2022-07-23T18:39:08;9.50;;;6.88;;
40815;SDS011;26535;48.788;9.214;2022-07-23T18:41:34;9.13;;;6.47;;
40815;SDS011;26535;48.788;9.214;2022-07-23T18:44:00;8.88;;;7.28;;
40815;SDS011;26535;48.788;9.214;2022-07-23T18:46:28;9.73;;;6.82;;
40815;SDS011;26535;48.788;9.214;2022-07-23T18:48:54;9.65;;;7.32;;
40815;SDS011;26535;48.788;9.214;2022-07-23T18:51:20;8.23;;;7.25;;
40815;SDS011;26535;48.788;9.214;2022-07-23T18:53:46;9.77;;;7.20;;
40815;SDS011;26535;48.788;9.214;2022-07-23T18:56:12;8.25;;;7.30;;
40815;SDS011;26535;48.788;9.214;2022-07-23T18:58:38;8.15;;;7.20;;
40815;SDS011;26535;48.788;9.214;2022-07-23T19:01:04;7.55;;;6.72;;
40815;SDS011;26535;48.788;9.214;2022-07-23T19:03:31;7.45;;;6.75;;
40815;SDS011;26535;48.788;9.214;2022-07-23T19:05:59;9.15;;;7.07;;
40815;SDS011;26535;48.788;9.214;2022-07-23T19:08:25;8.23;;;7.00;;
40815;SDS011;26535;48.788;9.214;2022-07-23T19:10:51;10.05;;;7.63;;
40815;SDS011;26535;48.788;9.214;2022-07-23T19:13:17;9.38;;;7.38;;
40815;SDS011;26535;48.788;9.214;2022-07-23T19:15:43;8.80;;;7.30;;
40815;SDS011;26535;48.788;9.214;2022-07-23T19:18:10;9.00;;;7.40;;
40815;SDS011;26535;48.788;9.214;2022-07-23T19:20:36;8.88;;;7.78;;
40815;SDS011;26535;48.788;9.214;2022-07-23T19:23:01;8.60;;;7.18;;
40815;SDS011;26535;48.788;9.214;2022-07-23T19:25:28;7.57;;;6.65;;
40815;SDS011;26535;48.788;9.214;2022-07-23T19:27:55;9.35;;;7.05;;
40815;SDS011;26535;48.788;9.214;2022-07-23T19:30:20;9.55;;;7.20;;
40815;SDS011;26535;48.788;9.214;2022-07-23T19:32:46;8.02;;;6.88;;
40815;SDS011;26535;48.788;9.214;2022-07-23T19:35:12;7.72;;;6.93;;
40815;SDS011;26535;48.788;9.214;2022-07-23T19:37:37;8.75;;;7.05;;
40815;SDS011;26535;48.788;9.214;2022-07-23T19:40:04;9.98;;;7.25;;
40815;SDS011;26535;48.788;9.214;2022-07-23T19:42:32;9.63;;;7.43;;
40815;SDS011;26535;48.788;9.214;2022-07-23T19:44:58;9.10;;;6.90;;
40815;SDS011;26535;48.788;9.214;2022-07-23T19:47:24;8.95;;;7.32;;
40815;SDS011;26535;48.788;9.214;2022-07-23T19:49:49;9.32;;;6.50;;
40815;SDS011;26535;48.788;9.214;2022-07-23T19:52:15;8.95;;;6.70;;
40815;SDS011;26535;48.788;9.214;2022-07-23T19:54:41;8.85;;;7.20;;
40815;SDS011;26535;48.788;9.214;2022-07-23T19:57:07;9.35;;;7.38;;
40815;SDS011;26535;48.788;9.214;2022-07-23T19:59:32;8.43;;;6.82;;
40815;SDS011;26535;48.788;9.214;2022-07-23T20:01:59;9.65;;;7.50;;
40815;SDS011;26535;48.788;9.214;2022-07-23T20:04:25;8.20;;;6.63;;
40815;SDS011;26535;48.788;9.214;2022-07-23T20:07:02;9.07;;;7.07;;
40815;SDS011;26535;48.788;9.214;2022-07-23T20:09:28;8.57;;;7.65;;
40815;SDS011;26535;48.788;9.214;2022-07-23T20:11:54;10.02;;;7.63;;
40815;SDS011;26535;48.788;9.214;2022-07-23T20:14:19;9.73;;;8.02;;
40815;SDS011;26535;48.788;9.214;2022-07-23T20:16:45;9.30;;;7.15;;
40815;SDS011;26535;48.788;9.214;2022-07-23T20:19:11;8.32;;;7.22;;
40815;SDS011;26535;48.788;9.214;2022-07-23T20:21:37;8.60;;;7.03;;
40815;SDS011;26535;48.788;9.214;2022-07-23T20:24:09;10.05;;;8.02;;
40815;SDS011;26535;48.788;9.214;2022-07-23T20:26:37;9.40;;;7.80;;
40815;SDS011;26535;48.788;9.214;2022-07-23T20:29:04;10.25;;;7.97;;
40815;SDS011;26535;48.788;9.214;2022-07-23T20:31:30;8.88;;;7.70;;
40815;SDS011;26535;48.788;9.214;2022-07-23T20:33:56;9.00;;;8.10;;
40815;SDS011;26535;48.788;9.214;2022-07-23T20:36:21;10.43;;;7.60;;
40815;SDS011;26535;48.788;9.214;2022-07-23T20:38:47;9.30;;;7.90;;
40815;SDS011;26535;48.788;9.214;2022-07-23T20:41:13;9.43;;;8.23;;
40815;SDS011;26535;48.788;9.214;2022-07-23T20:43:38;10.32;;;7.65;;
40815;SDS011;26535;48.788;9.214;2022-07-23T20:46:05;9.65;;;7.63;;
40815;SDS011;26535;48.788;9.214;2022-07-23T20:48:30;10.27;;;8.00;;
40815;SDS011;26535;48.788;9.214;2022-07-23T20:50:56;9.30;;;8.18;;
40815;SDS011;26535;48.788;9.214;2022-07-23T20:53:22;9.95;;;7.57;;
40815;SDS011;26535;48.788;9.214;2022-07-23T20:55:47;9.90;;;7.65;;